createdAt,value
2023-03-31T00:00:58.057Z,6.23
2023-03-31T00:03:25.349Z,4.33
2023-03-31T00:05:58.376Z,4.53
2023-03-31T00:08:35.660Z,4.10
2023-03-31T00:11:05.382Z,5.43
2023-03-31T00:13:32.287Z,5.17
2023-03-31T00:16:06.099Z,5.47
2023-03-31T00:18:34.687Z,5.83
2023-03-31T00:21:25.049Z,6.23
2023-03-31T00:24:00.732Z,4.73
2023-03-31T00:26:28.596Z,6.77
2023-03-31T00:28:56.540Z,6.60
2023-03-31T00:31:24.561Z,6.50
2023-03-31T00:33:51.525Z,5.20
2023-03-31T00:36:21.771Z,4.13
2023-03-31T00:38:49.256Z,8.57
2023-03-31T00:41:16.295Z,5.57
2023-03-31T00:44:01.340Z,5.87
2023-03-31T00:46:33.584Z,6.53
2023-03-31T00:49:01.627Z,7.23
2023-03-31T00:51:33.935Z,5.07
2023-03-31T00:54:05.570Z,6.77
2023-03-31T00:56:36.876Z,4.73
2023-03-31T00:59:07.987Z,6.67
2023-03-31T01:01:36.379Z,6.03
2023-03-31T01:04:05.229Z,4.97
2023-03-31T01:06:33.486Z,5.73
2023-03-31T01:09:04.194Z,5.53
2023-03-31T01:11:31.663Z,4.67
2023-03-31T01:13:59.085Z,6.87
2023-03-31T01:16:26.142Z,5.70
2023-03-31T01:18:53.717Z,5.03
2023-03-31T01:22:17.691Z,5.10
2023-03-31T01:25:01.798Z,4.57
2023-03-31T01:27:54.143Z,5.63
2023-03-31T01:31:14.666Z,6.43
2023-03-31T01:34:22.265Z,6.90
2023-03-31T01:37:19.450Z,5.03
2023-03-31T01:40:11.034Z,7.67
2023-03-31T01:43:04.067Z,5.07
2023-03-31T01:45:49.775Z,4.50
2023-03-31T01:48:21.289Z,5.83
2023-03-31T01:50:58.429Z,4.73
2023-03-31T01:53:45.703Z,6.83
2023-03-31T01:56:29.009Z,5.93
2023-03-31T01:59:23.444Z,8.07
2023-03-31T02:01:52.627Z,6.47
2023-03-31T02:04:24.449Z,5.80
2023-03-31T02:07:00.888Z,6.97
2023-03-31T02:09:35.018Z,8.03
2023-03-31T02:12:06.980Z,7.73
2023-03-31T02:14:36.899Z,7.03
2023-03-31T02:17:05.636Z,8.00
2023-03-31T02:19:39.677Z,5.97
2023-03-31T02:22:08.859Z,5.07
2023-03-31T02:24:38.828Z,4.20
2023-03-31T02:27:33.113Z,6.07
2023-03-31T02:30:03.952Z,5.43
2023-03-31T02:32:35.939Z,4.60
2023-03-31T02:35:03.960Z,4.93
2023-03-31T02:37:31.134Z,6.43
2023-03-31T02:40:01.870Z,8.73
2023-03-31T02:42:29.631Z,5.80
2023-03-31T02:45:03.875Z,5.97
2023-03-31T02:47:31.229Z,6.40
2023-03-31T02:50:01.297Z,9.00
2023-03-31T02:52:52.408Z,7.00
2023-03-31T02:55:30.716Z,5.50
2023-03-31T02:58:23.823Z,7.10
2023-03-31T03:01:18.392Z,3.97
2023-03-31T03:04:25.742Z,8.53
2023-03-31T03:07:34.849Z,5.07
2023-03-31T03:10:14.092Z,7.43
2023-03-31T03:12:56.960Z,4.97
2023-03-31T03:15:34.393Z,4.97
2023-03-31T03:18:03.801Z,8.03
2023-03-31T03:20:34.053Z,7.07
2023-03-31T03:23:00.954Z,9.50
2023-03-31T03:25:30.355Z,7.37
2023-03-31T03:27:57.400Z,7.53
2023-03-31T03:30:24.264Z,7.40
2023-03-31T03:32:51.344Z,10.60
2023-03-31T03:35:18.318Z,9.13
2023-03-31T03:37:45.477Z,9.53
2023-03-31T03:40:12.744Z,9.77
2023-03-31T03:42:39.798Z,5.20
2023-03-31T03:45:07.116Z,5.70
2023-03-31T03:47:37.690Z,5.80
2023-03-31T03:50:08.022Z,8.03
2023-03-31T03:52:35.220Z,7.63
2023-03-31T03:55:02.291Z,10.20
2023-03-31T03:57:30.075Z,7.63
2023-03-31T03:59:57.797Z,5.97
2023-03-31T04:02:27.596Z,7.17
2023-03-31T04:04:55.036Z,9.40
2023-03-31T04:07:21.965Z,8.83
2023-03-31T04:09:48.833Z,11.27
2023-03-31T04:12:15.795Z,7.67
2023-03-31T04:14:42.713Z,6.93
2023-03-31T04:17:10.688Z,8.00
2023-03-31T04:19:38.585Z,8.27
2023-03-31T04:22:05.536Z,11.17
2023-03-31T04:24:33.426Z,12.97
2023-03-31T04:27:01.041Z,14.53
2023-03-31T04:29:28.001Z,8.27
2023-03-31T04:31:59.093Z,11.70
2023-03-31T04:34:35.034Z,9.93
2023-03-31T04:37:02.968Z,6.53
2023-03-31T04:39:33.161Z,10.73
2023-03-31T04:42:01.208Z,6.80
2023-03-31T04:44:28.436Z,8.77
2023-03-31T04:46:55.887Z,8.63
2023-03-31T04:49:22.845Z,5.00
2023-03-31T04:51:49.880Z,8.37
2023-03-31T04:54:16.902Z,7.27
2023-03-31T04:56:43.920Z,5.63
2023-03-31T04:59:11.290Z,6.67
2023-03-31T05:01:38.423Z,6.57
2023-03-31T05:04:09.006Z,8.93
2023-03-31T05:06:35.900Z,7.93
2023-03-31T05:09:02.927Z,9.37
2023-03-31T05:11:29.858Z,6.93
2023-03-31T05:13:56.849Z,8.20
2023-03-31T05:16:23.823Z,6.87
2023-03-31T05:18:50.792Z,9.47
2023-03-31T05:21:20.729Z,7.50
2023-03-31T05:23:48.307Z,8.77
2023-03-31T05:26:15.952Z,7.20
2023-03-31T05:28:43.034Z,5.77
2023-03-31T05:31:11.416Z,7.37
2023-03-31T05:33:42.219Z,6.67
2023-03-31T05:36:11.782Z,6.60
2023-03-31T05:38:39.393Z,9.10
2023-03-31T05:41:07.552Z,5.43
2023-03-31T05:43:34.671Z,6.77
2023-03-31T05:46:01.995Z,8.50
2023-03-31T05:48:28.991Z,5.03
2023-03-31T05:51:00.875Z,4.77
2023-03-31T05:53:27.873Z,5.80
2023-03-31T05:56:03.602Z,11.47
2023-03-31T05:58:31.168Z,5.27
2023-03-31T06:01:08.731Z,6.93
2023-03-31T06:03:38.196Z,9.10
2023-03-31T06:06:06.316Z,11.53
2023-03-31T06:08:33.551Z,9.00
2023-03-31T06:11:01.098Z,12.63
2023-03-31T06:13:27.995Z,8.07
2023-03-31T06:15:57.007Z,13.23
2023-03-31T06:18:24.269Z,7.10
2023-03-31T06:20:51.806Z,6.77
2023-03-31T06:23:18.776Z,8.93
2023-03-31T06:25:51.442Z,8.50
2023-03-31T06:28:20.515Z,6.97
2023-03-31T06:30:47.730Z,7.73
2023-03-31T06:33:14.679Z,15.10
2023-03-31T06:35:41.940Z,10.37
2023-03-31T06:38:08.991Z,15.20
2023-03-31T06:40:36.459Z,7.50
2023-03-31T06:43:03.516Z,15.17
2023-03-31T06:45:30.524Z,10.40
2023-03-31T06:47:57.518Z,9.63
2023-03-31T06:50:24.470Z,16.13
2023-03-31T06:52:53.149Z,10.67
2023-03-31T06:55:20.044Z,11.83
2023-03-31T06:57:47.112Z,7.57
2023-03-31T07:00:14.618Z,10.23
2023-03-31T07:02:41.728Z,14.87
2023-03-31T07:05:09.209Z,13.47
2023-03-31T07:07:36.193Z,9.97
2023-03-31T07:10:03.209Z,15.47
2023-03-31T07:12:33.982Z,13.87
2023-03-31T07:15:00.998Z,12.93
2023-03-31T07:17:28.173Z,12.90
2023-03-31T07:19:55.245Z,13.30
2023-03-31T07:22:22.212Z,20.00
2023-03-31T07:24:49.081Z,14.37
2023-03-31T07:27:16.189Z,12.33
2023-03-31T07:29:43.066Z,13.77
2023-03-31T07:32:09.988Z,16.70
2023-03-31T07:34:37.754Z,14.13
2023-03-31T07:37:04.955Z,12.20
2023-03-31T07:39:32.984Z,13.60
2023-03-31T07:42:01.184Z,12.30
2023-03-31T07:44:28.143Z,15.73
2023-03-31T07:46:55.078Z,16.47
2023-03-31T07:49:21.945Z,15.13
2023-03-31T07:51:48.945Z,13.80
2023-03-31T07:54:15.905Z,13.83
2023-03-31T07:56:42.818Z,13.03
2023-03-31T07:59:10.215Z,14.30
2023-03-31T08:01:37.251Z,15.73
2023-03-31T08:04:04.434Z,13.90
2023-03-31T08:06:31.713Z,16.70
2023-03-31T08:08:59.142Z,15.30
2023-03-31T08:11:26.571Z,13.80
2023-03-31T08:13:53.585Z,16.60
2023-03-31T08:16:20.726Z,10.50
2023-03-31T08:18:47.749Z,13.93
2023-03-31T08:21:14.708Z,13.43
2023-03-31T08:23:41.711Z,15.90
2023-03-31T08:26:17.205Z,13.77
2023-03-31T08:28:46.358Z,16.63
2023-03-31T08:31:16.480Z,19.13
2023-03-31T08:33:43.589Z,13.63
2023-03-31T08:36:11.552Z,11.67
2023-03-31T08:38:41.901Z,8.90
2023-03-31T08:41:28.832Z,7.10
2023-03-31T08:43:58.268Z,8.53
2023-03-31T08:46:29.420Z,8.17
2023-03-31T08:48:58.689Z,6.70
2023-03-31T08:51:34.900Z,7.40
2023-03-31T08:54:08.124Z,8.27
2023-03-31T08:56:40.248Z,8.33
2023-03-31T08:59:33.237Z,7.77
2023-03-31T09:02:02.343Z,7.60
2023-03-31T09:04:56.917Z,9.40
2023-03-31T09:07:27.133Z,11.00
2023-03-31T09:10:00.112Z,21.00
2023-03-31T09:12:50.774Z,17.43
2023-03-31T09:15:25.738Z,6.03
2023-03-31T09:17:55.732Z,7.57
2023-03-31T09:20:32.343Z,9.47
2023-03-31T09:23:24.773Z,8.87
2023-03-31T09:25:51.727Z,13.67
2023-03-31T09:28:22.289Z,11.60
2023-03-31T09:30:49.989Z,12.67
2023-03-31T09:33:25.304Z,10.30
2023-03-31T09:35:52.331Z,12.37
2023-03-31T09:38:19.448Z,10.90
2023-03-31T09:40:46.993Z,9.97
2023-03-31T09:43:26.574Z,8.53
2023-03-31T09:46:08.756Z,13.10
2023-03-31T09:48:39.053Z,11.90
2023-03-31T09:51:14.696Z,14.23
2023-03-31T09:54:16.514Z,11.63
2023-03-31T09:56:43.426Z,6.60
2023-03-31T09:59:16.991Z,13.07
2023-03-31T10:01:50.055Z,8.10
2023-03-31T10:04:22.471Z,7.40
2023-03-31T10:06:50.127Z,5.13
2023-03-31T10:09:17.305Z,4.80
2023-03-31T10:12:04.171Z,6.53
2023-03-31T10:14:41.864Z,4.20
2023-03-31T10:17:15.977Z,6.00
2023-03-31T10:19:52.804Z,6.90
2023-03-31T10:22:22.759Z,6.43
2023-03-31T10:24:51.469Z,6.10
2023-03-31T10:27:25.520Z,7.93
2023-03-31T10:29:54.634Z,4.23
2023-03-31T10:32:28.914Z,5.53
2023-03-31T10:34:57.614Z,5.63
2023-03-31T10:37:28.529Z,7.30
2023-03-31T10:40:03.477Z,8.37
2023-03-31T10:42:30.769Z,7.23
2023-03-31T10:45:29.724Z,6.50
2023-03-31T10:48:03.374Z,6.90
2023-03-31T10:50:35.409Z,7.07
2023-03-31T10:53:11.864Z,13.67
2023-03-31T10:56:03.637Z,7.70
2023-03-31T10:59:05.762Z,7.37
2023-03-31T11:02:00.202Z,9.50
2023-03-31T11:04:36.747Z,10.83
2023-03-31T11:07:13.399Z,11.30
2023-03-31T11:09:50.586Z,10.20
2023-03-31T11:12:26.629Z,8.77
2023-03-31T11:14:59.734Z,6.57
2023-03-31T11:17:48.002Z,8.20
2023-03-31T11:20:36.932Z,13.30
2023-03-31T11:23:22.435Z,10.17
2023-03-31T11:26:02.700Z,9.57
2023-03-31T11:28:46.953Z,7.20
2023-03-31T11:31:20.118Z,7.77
2023-03-31T11:34:05.688Z,10.00
2023-03-31T11:36:32.486Z,6.50
2023-03-31T11:39:13.711Z,7.77
2023-03-31T11:41:53.547Z,7.60
2023-03-31T11:44:24.634Z,5.47
2023-03-31T11:47:03.013Z,4.70
2023-03-31T11:49:38.786Z,8.13
2023-03-31T11:52:21.961Z,9.07
2023-03-31T11:55:06.245Z,5.67
2023-03-31T11:57:36.404Z,5.80
2023-03-31T12:00:16.802Z,5.60
2023-03-31T12:03:09.132Z,9.00
2023-03-31T12:05:43.330Z,6.63
2023-03-31T12:08:30.542Z,7.13
2023-03-31T12:11:08.450Z,6.83
2023-03-31T12:14:04.396Z,7.23
2023-03-31T12:17:04.536Z,6.00
2023-03-31T12:19:46.989Z,8.67
2023-03-31T12:22:18.561Z,8.77
2023-03-31T12:24:46.988Z,8.37
2023-03-31T12:27:17.456Z,5.90
2023-03-31T12:30:05.105Z,6.23
2023-03-31T12:32:37.126Z,8.63
2023-03-31T12:35:03.984Z,5.93
2023-03-31T12:37:49.490Z,6.57
2023-03-31T12:40:30.800Z,9.87
2023-03-31T12:43:16.916Z,9.33
2023-03-31T12:46:21.566Z,5.90
2023-03-31T12:49:33.295Z,12.07
2023-03-31T12:52:11.777Z,8.97
2023-03-31T12:54:57.321Z,8.20
2023-03-31T12:57:26.281Z,10.67
2023-03-31T13:00:11.732Z,5.50
2023-03-31T13:02:40.779Z,5.43
2023-03-31T13:05:39.771Z,4.40
2023-03-31T13:08:10.540Z,6.23
2023-03-31T13:10:57.884Z,7.87
2023-03-31T13:13:26.365Z,11.37
2023-03-31T13:15:55.977Z,6.97
2023-03-31T13:18:23.861Z,6.80
2023-03-31T13:23:43.378Z,8.73
2023-03-31T13:26:49.068Z,6.47
2023-03-31T13:29:16.515Z,5.60
2023-03-31T13:32:01.870Z,4.67
2023-03-31T13:34:36.347Z,11.17
2023-03-31T13:37:15.416Z,7.47
2023-03-31T13:39:56.671Z,7.10
2023-03-31T13:43:00.864Z,7.30
2023-03-31T13:45:46.760Z,5.50
2023-03-31T13:48:31.936Z,8.47
2023-03-31T13:51:40.757Z,7.40
2023-03-31T13:54:44.772Z,6.80
2023-03-31T13:57:32.909Z,5.03
2023-03-31T14:00:04.802Z,6.47
2023-03-31T14:02:50.745Z,5.77
2023-03-31T14:05:48.335Z,7.77
2023-03-31T14:08:29.913Z,5.60
2023-03-31T14:11:21.395Z,12.70
2023-03-31T14:14:17.253Z,9.17
2023-03-31T14:16:57.024Z,7.37
2023-03-31T14:19:38.981Z,8.33
2023-03-31T14:22:21.259Z,7.07
2023-03-31T14:25:02.780Z,7.87
2023-03-31T14:27:55.138Z,14.87
2023-03-31T14:30:27.424Z,6.97
2023-03-31T14:33:26.181Z,9.37
2023-03-31T14:36:21.454Z,6.77
2023-03-31T14:38:48.835Z,12.70
2023-03-31T14:41:21.156Z,7.63
2023-03-31T14:43:51.150Z,11.93
2023-03-31T14:46:22.770Z,9.13
2023-03-31T14:48:51.718Z,8.13
2023-03-31T14:51:27.261Z,11.13
2023-03-31T14:54:01.259Z,8.33
2023-03-31T14:56:34.883Z,9.40
2023-03-31T14:59:03.486Z,7.10
2023-03-31T15:01:34.590Z,13.60
2023-03-31T15:04:14.104Z,5.77
2023-03-31T15:06:42.689Z,7.30
2023-03-31T15:09:17.674Z,6.77
2023-03-31T15:11:45.950Z,10.63
2023-03-31T15:14:13.777Z,7.60
2023-03-31T15:16:45.573Z,11.03
2023-03-31T15:19:20.085Z,7.40
2023-03-31T15:21:54.924Z,8.60
2023-03-31T15:24:22.721Z,5.50
2023-03-31T15:26:57.414Z,9.23
2023-03-31T15:29:38.124Z,7.83
2023-03-31T15:32:16.262Z,12.57
2023-03-31T15:34:44.092Z,12.10
2023-03-31T15:37:11.145Z,13.33
2023-03-31T15:39:39.360Z,9.00
2023-03-31T15:42:08.231Z,10.77
2023-03-31T15:44:39.756Z,9.10
2023-03-31T15:47:27.548Z,9.73
2023-03-31T15:49:58.948Z,10.27
2023-03-31T15:52:35.489Z,8.13
2023-03-31T15:55:33.298Z,9.73
2023-03-31T15:58:01.564Z,9.70
2023-03-31T16:00:31.754Z,7.00
2023-03-31T16:03:00.367Z,10.00
2023-03-31T16:05:54.345Z,6.67
2023-03-31T16:08:31.569Z,34.50
2023-03-31T16:11:07.427Z,13.10
2023-03-31T16:13:38.973Z,11.83
2023-03-31T16:16:10.620Z,13.30
2023-03-31T16:18:42.959Z,8.43
2023-03-31T16:21:10.409Z,9.73
2023-03-31T16:23:41.237Z,12.97
2023-03-31T16:26:08.759Z,11.07
2023-03-31T16:28:38.058Z,12.47
2023-03-31T16:31:26.231Z,13.00
2023-03-31T16:33:57.589Z,13.63
2023-03-31T16:36:24.588Z,13.20
2023-03-31T16:38:55.548Z,10.60
2023-03-31T16:41:23.532Z,11.20
2023-03-31T16:43:52.612Z,12.53
2023-03-31T16:46:20.025Z,12.50
2023-03-31T16:48:47.768Z,8.73
2023-03-31T16:51:15.457Z,12.00
2023-03-31T16:53:42.613Z,15.00
2023-03-31T16:56:12.360Z,13.27
2023-03-31T16:58:41.145Z,11.37
2023-03-31T17:01:10.072Z,15.30
2023-03-31T17:03:38.824Z,14.30
2023-03-31T17:06:11.982Z,17.90
2023-03-31T17:08:39.777Z,16.63
2023-03-31T17:11:14.412Z,12.93
2023-03-31T17:13:43.335Z,14.87
2023-03-31T17:18:42.245Z,18.77
2023-03-31T17:21:14.298Z,19.70
2023-03-31T17:23:42.591Z,18.97
2023-03-31T17:26:12.840Z,17.60
2023-03-31T17:28:41.065Z,18.40
2023-03-31T17:31:16.280Z,11.67
2023-03-31T17:33:43.768Z,14.13
2023-03-31T17:36:11.232Z,15.03
2023-03-31T17:38:42.052Z,13.87
2023-03-31T17:41:12.713Z,15.07
2023-03-31T17:43:40.103Z,16.80
2023-03-31T17:46:11.822Z,31.50
2023-03-31T17:48:39.852Z,30.07
2023-03-31T17:51:08.766Z,28.20
2023-03-31T17:53:36.324Z,29.67
2023-03-31T17:56:04.607Z,30.23
2023-03-31T17:58:32.417Z,31.87
2023-03-31T18:00:59.745Z,26.00
2023-03-31T18:03:29.944Z,25.47
2023-03-31T18:05:57.050Z,22.90
2023-03-31T18:08:23.978Z,21.90
2023-03-31T18:10:51.522Z,27.97
2023-03-31T18:13:18.541Z,25.30
2023-03-31T18:15:52.896Z,21.10
2023-03-31T18:18:20.895Z,22.23
2023-03-31T18:20:47.964Z,28.10
2023-03-31T18:23:15.116Z,37.53
2023-03-31T18:25:45.283Z,51.20
2023-03-31T18:28:13.900Z,40.70
2023-03-31T18:30:41.296Z,44.53
2023-03-31T18:33:08.321Z,45.30
2023-03-31T18:35:35.514Z,35.67
2023-03-31T18:38:03.163Z,41.87
2023-03-31T18:40:30.251Z,44.73
2023-03-31T18:42:57.246Z,48.63
2023-03-31T18:45:24.234Z,46.23
2023-03-31T18:47:51.305Z,94.40
2023-03-31T18:50:18.302Z,55.60
2023-03-31T18:52:46.316Z,36.77
2023-03-31T18:55:14.480Z,42.07
2023-03-31T18:57:41.516Z,65.20
2023-03-31T19:00:09.998Z,36.10
2023-03-31T19:02:37.170Z,39.07
2023-03-31T19:05:04.571Z,47.13
2023-03-31T19:07:32.401Z,47.90
2023-03-31T19:09:59.494Z,41.37
2023-03-31T19:12:26.624Z,38.23
2023-03-31T19:14:53.718Z,38.97
2023-03-31T19:17:20.700Z,38.57
2023-03-31T19:19:47.748Z,29.77
2023-03-31T19:22:14.616Z,29.37
2023-03-31T19:24:42.354Z,36.37
2023-03-31T19:27:12.247Z,25.67
2023-03-31T19:29:39.188Z,27.17
2023-03-31T19:32:06.448Z,22.83
2023-03-31T19:34:34.275Z,19.27
2023-03-31T19:37:02.382Z,20.73
2023-03-31T19:39:29.611Z,17.67
2023-03-31T19:41:56.547Z,22.60
2023-03-31T19:44:23.471Z,26.33
2023-03-31T19:46:50.420Z,27.43
2023-03-31T19:49:17.856Z,25.27
2023-03-31T19:51:44.780Z,25.90
2023-03-31T19:54:12.367Z,27.43
2023-03-31T19:56:40.160Z,18.43
2023-03-31T19:59:07.667Z,24.70
2023-03-31T20:01:34.833Z,22.17
2023-03-31T20:04:02.172Z,19.70
2023-03-31T20:06:30.812Z,24.17
2023-03-31T20:09:00.433Z,25.70
2023-03-31T20:11:29.135Z,24.67
2023-03-31T20:13:56.697Z,26.90
2023-03-31T20:16:26.128Z,29.47
2023-03-31T20:18:55.251Z,25.73
2023-03-31T20:21:25.941Z,26.77
2023-03-31T20:23:53.481Z,25.67
2023-03-31T20:26:26.473Z,28.13
2023-03-31T20:28:55.036Z,27.43
2023-03-31T20:31:25.038Z,28.80
2023-03-31T20:33:53.960Z,26.50
2023-03-31T20:36:28.827Z,34.67
2023-03-31T20:38:56.018Z,40.23
2023-03-31T20:41:29.790Z,34.97
2023-03-31T20:43:57.776Z,28.60
2023-03-31T20:46:25.191Z,26.43
2023-03-31T20:48:55.091Z,20.83
2023-03-31T20:51:32.987Z,24.07
2023-03-31T20:54:01.842Z,19.47
2023-03-31T20:56:35.143Z,19.47
2023-03-31T20:59:02.179Z,23.37
2023-03-31T21:01:32.827Z,21.60
2023-03-31T21:04:01.782Z,22.57
2023-03-31T21:06:32.705Z,22.50
2023-03-31T21:08:59.732Z,26.83
2023-03-31T21:11:27.455Z,27.30
2023-03-31T21:13:54.552Z,29.63
2023-03-31T21:16:22.466Z,26.70
2023-03-31T21:18:51.755Z,29.87
2023-03-31T21:21:19.559Z,29.10
2023-03-31T21:23:46.846Z,29.23
2023-03-31T21:26:15.758Z,39.20
2023-03-31T21:28:43.571Z,35.27
2023-03-31T21:31:11.830Z,32.07
2023-03-31T21:33:40.657Z,35.47
2023-03-31T21:36:10.614Z,35.30
2023-03-31T21:38:37.595Z,31.57
2023-03-31T21:41:09.408Z,35.10
2023-03-31T21:43:37.312Z,30.17
2023-03-31T21:46:04.906Z,33.00
2023-03-31T21:48:31.908Z,24.93
2023-03-31T21:51:00.765Z,18.23
2023-03-31T21:53:30.168Z,19.43
2023-03-31T21:55:58.256Z,21.73
2023-03-31T21:58:28.948Z,20.70
2023-03-31T22:00:57.578Z,26.60
2023-03-31T22:03:28.548Z,23.93
2023-03-31T22:05:56.862Z,23.07
2023-03-31T22:08:25.043Z,26.37
2023-03-31T22:10:53.103Z,23.80
2023-03-31T22:13:21.960Z,30.60
2023-03-31T22:15:48.987Z,28.73
2023-03-31T22:18:17.099Z,25.47
2023-03-31T22:20:44.659Z,25.37
2023-03-31T22:23:11.528Z,28.17
2023-03-31T22:25:38.684Z,30.63
2023-03-31T22:28:07.049Z,29.43
2023-03-31T22:30:35.140Z,39.00
2023-03-31T22:33:02.154Z,34.27
2023-03-31T22:35:29.457Z,30.97
2023-03-31T22:37:56.754Z,25.70
2023-03-31T22:40:24.066Z,24.10
2023-03-31T22:42:51.117Z,28.37
2023-03-31T22:45:18.122Z,28.73
2023-03-31T22:47:45.034Z,25.80
2023-03-31T22:50:12.127Z,20.40
2023-03-31T22:52:39.054Z,26.67
2023-03-31T22:55:06.490Z,22.70
2023-03-31T22:57:33.738Z,22.57
2023-03-31T23:00:00.874Z,16.50
2023-03-31T23:02:27.860Z,20.17
2023-03-31T23:04:54.766Z,21.03
2023-03-31T23:07:22.305Z,20.87
2023-03-31T23:09:49.321Z,19.97
2023-03-31T23:12:16.288Z,20.17
2023-03-31T23:14:43.166Z,23.97
2023-03-31T23:17:10.053Z,22.27
2023-03-31T23:19:38.811Z,22.57
2023-03-31T23:22:06.172Z,21.43
2023-03-31T23:24:33.334Z,20.43
2023-03-31T23:27:00.282Z,26.50
2023-03-31T23:29:27.450Z,18.97
2023-03-31T23:31:54.469Z,21.03
2023-03-31T23:34:21.438Z,17.87
2023-03-31T23:36:48.614Z,16.87
2023-03-31T23:39:16.164Z,18.00
2023-03-31T23:41:42.995Z,18.43
2023-03-31T23:44:09.986Z,20.40
2023-03-31T23:46:38.220Z,16.43
2023-03-31T23:49:05.332Z,17.60
2023-03-31T23:51:32.218Z,16.50
2023-03-31T23:53:59.149Z,22.40
2023-03-31T23:56:28.469Z,18.53
2023-03-31T23:58:55.488Z,20.07
